Time,TemperatureF,DewpointF,PressureIn,WindDirection,WindDirectionDegrees,WindSpeedMPH,WindSpeedGustMPH,Humidity,HourlyPrecipIn,Conditions,Clouds,dailyrainin,SoftwareType,DateUTC
2013-01-17 00:05:00,47.0,45.0,29.97,SW,219,0.0,5.0,92,0.02,,,0.00,weatherlink.com 1.10,2013-01-17 05:05:00,
2013-01-17 00:20:00,46.3,45.0,29.99,WNW,285,0.0,2.0,94,0.03,,,0.01,weatherlink.com 1.10,2013-01-17 05:20:00,
2013-01-17 00:36:00,45.9,45.0,29.99,WNW,285,0.0,0.0,96,0.03,,,0.02,weatherlink.com 1.10,2013-01-17 05:36:00,
2013-01-17 00:51:00,45.4,44.0,29.98,WNW,285,0.0,0.0,96,0.02,,,0.02,weatherlink.com 1.10,2013-01-17 05:51:00,
2013-01-17 01:06:00,45.3,45.0,29.97,WNW,285,0.0,0.0,97,0.02,,,0.02,weatherlink.com 1.10,2013-01-17 06:06:00,
2013-01-17 01:21:00,45.1,44.0,29.97,WNW,285,0.0,1.0,97,0.01,,,0.02,weatherlink.com 1.10,2013-01-17 06:21:00,
2013-01-17 01:36:00,45.1,44.0,29.97,WNW,285,0.0,0.0,97,0.01,,,0.03,weatherlink.com 1.10,2013-01-17 06:36:00,
2013-01-17 01:51:00,45.0,45.0,29.98,WNW,285,0.0,0.0,98,0.01,,,0.03,weatherlink.com 1.10,2013-01-17 06:51:00,
2013-01-17 02:06:00,45.0,45.0,29.99,WNW,285,0.0,0.0,98,0.02,,,0.04,weatherlink.com 1.10,2013-01-17 07:06:00,
2013-01-17 02:21:00,45.0,45.0,29.98,WNW,285,0.0,0.0,98,0.02,,,0.04,weatherlink.com 1.10,2013-01-17 07:21:00,
2013-01-17 02:36:00,45.0,45.0,29.97,WNW,285,0.0,0.0,98,0.01,,,0.04,weatherlink.com 1.10,2013-01-17 07:36:00,
2013-01-17 02:51:00,45.0,45.0,29.98,WNW,285,0.0,0.0,98,0.01,,,0.04,weatherlink.com 1.10,2013-01-17 07:51:00,
2013-01-17 03:06:00,45.1,44.0,29.99,WNW,285,0.0,0.0,97,0.00,,,0.04,weatherlink.com 1.10,2013-01-17 08:06:00,
2013-01-17 03:21:00,45.3,45.0,29.99,WNW,286,0.0,0.0,97,0.00,,,0.04,weatherlink.com 1.10,2013-01-17 08:21:00,
2013-01-17 03:36:00,45.3,44.0,29.99,WNW,283,0.0,0.0,96,0.00,,,0.04,weatherlink.com 1.10,2013-01-17 08:36:00,
2013-01-17 03:51:00,45.3,44.0,29.99,NW,307,0.0,1.0,95,0.00,,,0.04,weatherlink.com 1.10,2013-01-17 08:51:00,
2013-01-17 04:06:00,45.3,43.0,29.99,WNW,302,0.0,1.0,92,0.01,,,0.05,weatherlink.com 1.10,2013-01-17 09:06:00,
2013-01-17 04:21:00,45.3,43.0,29.99,SE,125,0.0,6.0,92,0.01,,,0.05,weatherlink.com 1.10,2013-01-17 09:21:00,
2013-01-17 04:36:00,44.8,42.0,30.00,WSW,240,0.0,1.0,91,0.01,,,0.05,weatherlink.com 1.10,2013-01-17 09:36:00,
2013-01-17 04:51:00,44.4,43.0,29.99,ENE,58,0.0,1.0,93,0.02,,,0.06,weatherlink.com 1.10,2013-01-17 09:51:00,
2013-01-17 05:06:00,43.8,41.0,30.00,WSW,245,0.0,3.0,89,0.02,,,0.07,weatherlink.com 1.10,2013-01-17 10:06:00,
2013-01-17 05:21:00,43.4,42.0,29.98,WSW,244,0.0,0.0,93,0.03,,,0.08,weatherlink.com 1.10,2013-01-17 10:21:00,
2013-01-17 05:36:00,43.0,40.0,29.99,SW,223,3.0,5.0,90,0.04,,,0.09,weatherlink.com 1.10,2013-01-17 10:36:00,
2013-01-17 05:51:00,43.0,40.0,30.00,SSW,209,1.0,4.0,90,0.03,,,0.09,weatherlink.com 1.10,2013-01-17 10:51:00,
2013-01-17 06:06:00,42.8,39.0,29.98,SSW,203,0.0,4.0,87,0.02,,,0.09,weatherlink.com 1.10,2013-01-17 11:06:00,
2013-01-17 06:21:00,42.4,38.0,29.98,SW,232,1.0,3.0,84,0.01,,,0.09,weatherlink.com 1.10,2013-01-17 11:21:00,
2013-01-17 06:36:00,42.2,38.0,30.00,West,262,0.0,3.0,86,0.01,,,0.10,weatherlink.com 1.10,2013-01-17 11:36:00,
2013-01-17 06:53:00,42.1,38.0,30.02,SSW,207,0.0,3.0,85,0.01,,,0.10,weatherlink.com 1.10,2013-01-17 11:53:00,
2013-01-17 07:06:00,41.8,36.0,30.03,SW,217,0.0,4.0,81,0.02,,,0.11,weatherlink.com 1.10,2013-01-17 12:06:00,
2013-01-17 07:21:00,41.2,37.0,30.02,SW,230,0.0,1.0,86,0.04,,,0.13,weatherlink.com 1.10,2013-01-17 12:21:00,
2013-01-17 07:36:00,40.7,37.0,30.02,SW,232,1.0,2.0,87,0.04,,,0.14,weatherlink.com 1.10,2013-01-17 12:36:00,
2013-01-17 08:07:00,40.2,38.0,30.03,WSW,246,0.0,0.0,93,0.04,,,0.15,weatherlink.com 1.10,2013-01-17 13:07:00,
2013-01-17 08:22:00,40.0,39.0,30.02,WSW,246,0.0,0.0,95,0.02,,,0.15,weatherlink.com 1.10,2013-01-17 13:22:00,
2013-01-17 08:37:00,40.1,39.0,30.03,WSW,246,0.0,0.0,96,0.01,,,0.15,weatherlink.com 1.10,2013-01-17 13:37:00,
2013-01-17 08:52:00,40.1,39.0,30.04,WSW,246,0.0,0.0,95,0.02,,,0.16,weatherlink.com 1.10,2013-01-17 13:52:00,
2013-01-17 09:07:00,40.0,38.0,30.05,WSW,246,0.0,1.0,91,0.03,,,0.18,weatherlink.com 1.10,2013-01-17 14:07:00,
2013-01-17 09:22:00,39.8,38.0,30.05,WSW,246,0.0,0.0,92,0.05,,,0.20,weatherlink.com 1.10,2013-01-17 14:22:00,
2013-01-17 09:37:00,40.0,39.0,30.05,SW,235,0.0,1.0,95,0.06,,,0.21,weatherlink.com 1.10,2013-01-17 14:37:00,
2013-01-17 09:52:00,40.0,39.0,30.05,SW,236,0.0,0.0,96,0.05,,,0.21,weatherlink.com 1.10,2013-01-17 14:52:00,
2013-01-17 10:07:00,39.5,39.0,30.06,SW,236,0.0,0.0,96,0.04,,,0.22,weatherlink.com 1.10,2013-01-17 15:07:00,
2013-01-17 10:22:00,39.5,39.0,30.08,South,187,0.0,1.0,96,0.03,,,0.23,weatherlink.com 1.10,2013-01-17 15:22:00,
2013-01-17 10:37:00,39.1,38.0,30.08,South,184,0.0,0.0,95,0.04,,,0.25,weatherlink.com 1.10,2013-01-17 15:37:00,
2013-01-17 10:52:00,38.8,38.0,30.05,South,184,0.0,0.0,95,0.04,,,0.25,weatherlink.com 1.10,2013-01-17 15:52:00,
2013-01-17 11:07:00,38.1,37.0,30.06,South,184,0.0,0.0,94,0.06,,,0.28,weatherlink.com 1.10,2013-01-17 16:07:00,
2013-01-17 11:22:00,37.2,36.0,30.06,South,184,0.0,0.0,94,0.09,,,0.32,weatherlink.com 1.10,2013-01-17 16:22:00,
2013-01-17 11:37:00,36.8,35.0,30.07,SSW,213,0.0,0.0,93,0.10,,,0.35,weatherlink.com 1.10,2013-01-17 16:37:00,
2013-01-17 11:52:00,36.7,35.0,30.05,SSW,213,0.0,0.0,94,0.12,,,0.37,weatherlink.com 1.10,2013-01-17 16:52:00,
2013-01-17 12:07:00,36.8,35.0,30.06,SSW,213,0.0,0.0,94,0.11,,,0.39,weatherlink.com 1.10,2013-01-17 17:07:00,
2013-01-17 12:22:00,36.7,35.0,30.03,SSW,213,0.0,0.0,94,0.08,,,0.40,weatherlink.com 1.10,2013-01-17 17:22:00,
2013-01-17 12:37:00,36.4,35.0,30.02,SSW,213,0.0,0.0,94,0.06,,,0.41,weatherlink.com 1.10,2013-01-17 17:37:00,
2013-01-17 12:52:00,36.4,35.0,30.02,SW,234,0.0,0.0,95,0.06,,,0.43,weatherlink.com 1.10,2013-01-17 17:52:00,
2013-01-17 13:07:00,36.2,35.0,30.02,SW,234,0.0,1.0,94,0.08,,,0.47,weatherlink.com 1.10,2013-01-17 18:07:00,
2013-01-17 13:22:00,35.8,35.0,30.00,SW,234,0.0,0.0,95,0.10,,,0.50,weatherlink.com 1.10,2013-01-17 18:22:00,
2013-01-17 13:37:00,35.7,34.0,30.01,SW,234,0.0,1.0,95,0.12,,,0.53,weatherlink.com 1.10,2013-01-17 18:37:00,
2013-01-17 13:52:00,35.2,34.0,29.98,SW,234,0.0,0.0,96,0.12,,,0.55,weatherlink.com 1.10,2013-01-17 18:52:00,
2013-01-17 14:07:00,35.2,34.0,29.99,SSW,213,0.0,2.0,96,0.10,,,0.57,weatherlink.com 1.10,2013-01-17 19:07:00,
2013-01-17 14:22:00,34.9,34.0,30.02,SW,215,0.0,1.0,96,0.07,,,0.57,weatherlink.com 1.10,2013-01-17 19:22:00,
2013-01-17 14:37:00,33.9,33.0,30.00,SW,215,0.0,0.0,96,0.04,,,0.57,weatherlink.com 1.10,2013-01-17 19:37:00,
2013-01-17 14:52:00,33.1,32.0,30.02,SW,215,0.0,0.0,96,0.02,,,0.57,weatherlink.com 1.10,2013-01-17 19:52:00,
2013-01-17 15:07:00,32.7,32.0,30.02,SW,215,0.0,0.0,97,0.00,,,0.57,weatherlink.com 1.10,2013-01-17 20:07:00,
2013-01-17 15:22:00,32.4,32.0,30.02,SW,215,0.0,0.0,97,0.00,,,0.57,weatherlink.com 1.10,2013-01-17 20:22:00,
2013-01-17 15:37:00,32.4,32.0,30.02,SSW,213,0.0,0.0,98,0.00,,,0.57,weatherlink.com 1.10,2013-01-17 20:37:00,
2013-01-17 15:52:00,32.3,32.0,30.04,ESE,121,0.0,0.0,98,0.00,,,0.57,weatherlink.com 1.10,2013-01-17 20:52:00,
2013-01-17 16:07:00,32.4,32.0,30.04,ESE,121,0.0,0.0,98,0.00,,,0.57,weatherlink.com 1.10,2013-01-17 21:07:00,
2013-01-17 16:22:00,32.3,32.0,30.05,ESE,121,0.0,0.0,98,0.00,,,0.57,weatherlink.com 1.10,2013-01-17 21:22:00,
2013-01-17 16:37:00,32.3,32.0,30.05,ESE,121,0.0,0.0,99,0.00,,,0.57,weatherlink.com 1.10,2013-01-17 21:37:00,
2013-01-17 16:53:00,32.1,32.0,30.05,ESE,121,0.0,0.0,99,0.00,,,0.57,weatherlink.com 1.10,2013-01-17 21:53:00,
2013-01-17 17:08:00,32.1,32.0,30.05,ESE,121,0.0,0.0,99,0.00,,,0.57,weatherlink.com 1.10,2013-01-17 22:08:00,
2013-01-17 17:23:00,32.1,32.0,30.07,ESE,121,0.0,0.0,99,0.00,,,0.57,weatherlink.com 1.10,2013-01-17 22:23:00,
2013-01-17 17:38:00,32.1,32.0,30.08,ESE,121,0.0,0.0,99,0.01,,,0.58,weatherlink.com 1.10,2013-01-17 22:38:00,
2013-01-17 17:53:00,32.3,32.0,30.09,ESE,121,0.0,0.0,99,0.01,,,0.58,weatherlink.com 1.10,2013-01-17 22:53:00,
2013-01-17 18:08:00,32.1,32.0,30.09,ESE,121,0.0,0.0,99,0.01,,,0.58,weatherlink.com 1.10,2013-01-17 23:08:00,
2013-01-17 18:23:00,32.1,32.0,30.06,ESE,121,0.0,0.0,99,0.01,,,0.58,weatherlink.com 1.10,2013-01-17 23:23:00,
2013-01-17 18:38:00,32.1,32.0,30.04,ESE,121,0.0,0.0,99,0.00,,,0.58,weatherlink.com 1.10,2013-01-17 23:38:00,
2013-01-17 18:53:00,32.3,32.0,30.06,ESE,121,0.0,0.0,99,0.00,,,0.58,weatherlink.com 1.10,2013-01-17 23:53:00,
2013-01-17 19:08:00,32.4,32.0,30.04,ESE,121,0.0,0.0,99,0.00,,,0.58,weatherlink.com 1.10,2013-01-18 00:08:00,
2013-01-17 19:23:00,32.6,32.0,30.04,ESE,121,0.0,0.0,99,0.00,,,0.58,weatherlink.com 1.10,2013-01-18 00:23:00,
2013-01-17 19:38:00,32.6,32.0,30.03,ESE,121,0.0,0.0,99,0.00,,,0.58,weatherlink.com 1.10,2013-01-18 00:38:00,
2013-01-17 19:53:00,32.6,32.0,30.04,WNW,299,0.0,0.0,99,0.00,,,0.58,weatherlink.com 1.10,2013-01-18 00:53:00,
2013-01-17 20:08:00,32.6,32.0,30.05,WNW,299,0.0,0.0,99,0.00,,,0.58,weatherlink.com 1.10,2013-01-18 01:08:00,
2013-01-17 20:23:00,32.4,32.0,30.03,WNW,299,0.0,0.0,99,0.00,,,0.58,weatherlink.com 1.10,2013-01-18 01:23:00,
2013-01-17 20:38:00,32.4,32.0,30.06,ENE,62,0.0,0.0,99,0.00,,,0.58,weatherlink.com 1.10,2013-01-18 01:38:00,
2013-01-17 20:53:00,32.3,32.0,30.06,ENE,62,0.0,0.0,99,0.00,,,0.58,weatherlink.com 1.10,2013-01-18 01:53:00,
2013-01-17 21:08:00,32.3,32.0,30.05,ENE,62,0.0,0.0,99,0.00,,,0.58,weatherlink.com 1.10,2013-01-18 02:08:00,
2013-01-17 21:23:00,32.1,32.0,30.01,ENE,62,0.0,0.0,99,0.00,,,0.58,weatherlink.com 1.10,2013-01-18 02:23:00,
2013-01-17 21:38:00,32.1,32.0,30.02,ENE,62,0.0,0.0,99,0.00,,,0.58,weatherlink.com 1.10,2013-01-18 02:38:00,
2013-01-17 21:53:00,32.1,32.0,30.03,ENE,62,0.0,0.0,100,0.00,,,0.58,weatherlink.com 1.10,2013-01-18 02:53:00,
2013-01-17 22:08:00,32.4,32.0,30.08,ENE,62,0.0,0.0,100,0.00,,,0.58,weatherlink.com 1.10,2013-01-18 03:08:00,
2013-01-17 22:23:00,32.7,33.0,30.08,SW,227,0.0,1.0,100,0.00,,,0.58,weatherlink.com 1.10,2013-01-18 03:23:00,
2013-01-17 22:38:00,33.0,33.0,30.09,SW,227,0.0,0.0,100,0.00,,,0.58,weatherlink.com 1.10,2013-01-18 03:38:00,
2013-01-17 22:53:00,33.1,33.0,30.11,West,272,0.0,2.0,100,0.00,,,0.58,weatherlink.com 1.10,2013-01-18 03:53:00,
2013-01-17 23:08:00,33.3,33.0,30.11,West,272,0.0,0.0,100,0.00,,,0.58,weatherlink.com 1.10,2013-01-18 04:08:00,
2013-01-17 23:23:00,33.3,33.0,30.11,WSW,257,0.0,3.0,99,0.00,,,0.58,weatherlink.com 1.10,2013-01-18 04:23:00,
2013-01-17 23:38:00,33.6,32.0,30.13,SW,219,0.0,2.0,94,0.00,,,0.58,weatherlink.com 1.10,2013-01-18 04:38:00,
2013-01-17 23:53:00,33.9,31.0,30.14,SW,223,2.0,5.0,87,0.00,,,0.58,weatherlink.com 1.10,2013-01-18 04:53:00,